Time;durP1;ratioP1;P1;durP2;ratioP2;P2;SDS_P1;SDS_P2;PMS_P1;PMS_P2;Temp;Humidity;BMP_temperature;BMP_pressure;BME280_temperature;BME280_humidity;BME280_pressure;Samples;Min_cycle;Max_cycle;Signal;HPM_P1;HPM_P2
2022/05/16 00:00:28;;;;;;;7.05;3.38;;;18.70;65.50;;;;;;2080703;28;20119;-70
2022/05/16 00:01:29;;;;;;;7.28;3.25;;;18.70;65.70;;;;;;2080290;28;20022;-70
2022/05/16 00:02:29;;;;;;;8.85;3.50;;;18.70;65.60;;;;;;2080867;28;20493;-70
2022/05/16 00:03:30;;;;;;;5.90;3.08;;;18.70;65.80;;;;;;2080213;28;20116;-70
2022/05/16 00:04:31;;;;;;;7.10;3.25;;;18.60;65.80;;;;;;2081010;28;20033;-70
2022/05/16 00:05:31;;;;;;;7.18;3.13;;;18.60;65.80;;;;;;2082319;28;20025;-70
2022/05/16 00:06:32;;;;;;;6.57;3.60;;;18.60;66.00;;;;;;2084260;28;20056;-70
2022/05/16 00:07:32;;;;;;;7.50;3.17;;;18.60;65.90;;;;;;2084600;28;20610;-70
2022/05/16 00:08:33;;;;;;;4.82;2.58;;;18.60;65.90;;;;;;2081878;28;20119;-70
2022/05/16 00:09:34;;;;;;;10.48;3.60;;;18.60;66.10;;;;;;2080235;28;20601;-72
2022/05/16 00:10:35;;;;;;;9.68;3.60;;;18.60;66.20;;;;;;2082625;28;20559;-70
2022/05/16 00:11:36;;;;;;;6.25;3.47;;;18.60;66.30;;;;;;2080250;28;20499;-70
2022/05/16 00:12:37;;;;;;;7.88;3.08;;;18.60;66.30;;;;;;2081075;28;20488;-70
2022/05/16 00:13:38;;;;;;;6.43;3.13;;;18.50;66.40;;;;;;2083585;28;20049;-70
2022/05/16 00:14:41;;;;;;;7.90;3.97;;;18.60;66.60;;;;;;2080626;28;20026;-70
2022/05/16 00:15:42;;;;;;;8.05;3.22;;;18.60;66.70;;;;;;2082329;28;20516;-70
2022/05/16 00:16:42;;;;;;;8.32;3.38;;;18.50;66.90;;;;;;2080310;28;20412;-70
2022/05/16 00:17:43;;;;;;;5.30;3.08;;;18.50;66.60;;;;;;2081664;28;20031;-70
2022/05/16 00:18:43;;;;;;;5.30;3.20;;;18.50;66.90;;;;;;2080361;28;20013;-70
2022/05/16 00:19:44;;;;;;;6.78;3.47;;;18.50;66.80;;;;;;2084334;28;20016;-70
2022/05/16 00:20:44;;;;;;;5.93;2.92;;;18.50;67.10;;;;;;2081931;28;20031;-70
2022/05/16 00:21:45;;;;;;;6.28;3.40;;;18.50;67.30;;;;;;2085646;28;20041;-70
2022/05/16 00:22:45;;;;;;;6.63;3.13;;;18.40;67.20;;;;;;2083485;28;20471;-70
2022/05/16 00:23:46;;;;;;;7.43;3.55;;;18.50;67.30;;;;;;2082799;28;20078;-70
2022/05/16 00:24:47;;;;;;;8.88;3.72;;;18.40;67.50;;;;;;2080333;28;20029;-70
2022/05/16 00:25:47;;;;;;;8.32;3.17;;;18.40;67.50;;;;;;2081030;28;20021;-70
2022/05/16 00:26:48;;;;;;;7.47;3.33;;;18.40;67.50;;;;;;2081583;28;20057;-70
2022/05/16 00:27:48;;;;;;;6.13;3.13;;;18.40;67.80;;;;;;2082482;28;20550;-70
2022/05/16 00:28:49;;;;;;;9.00;3.20;;;18.40;67.80;;;;;;2081877;28;20473;-70
2022/05/16 00:29:49;;;;;;;8.48;4.00;;;18.40;67.80;;;;;;2082139;28;20052;-70
2022/05/16 00:30:50;;;;;;;8.57;3.55;;;18.40;68.20;;;;;;2082294;28;20167;-70
2022/05/16 00:31:51;;;;;;;4.90;3.42;;;18.40;68.40;;;;;;2082048;28;20037;-70
2022/05/16 00:32:52;;;;;;;9.27;3.70;;;18.40;68.40;;;;;;2081263;28;20017;-70
2022/05/16 00:33:53;;;;;;;6.88;3.50;;;18.40;68.70;;;;;;2081286;28;20029;-70
2022/05/16 00:34:53;;;;;;;6.40;3.33;;;18.40;68.40;;;;;;2080890;28;20037;-70
2022/05/16 00:35:54;;;;;;;7.57;3.63;;;18.40;68.90;;;;;;2083220;28;20033;-70
2022/05/16 00:36:54;;;;;;;7.65;3.55;;;18.30;69.00;;;;;;2080244;28;20448;-70
2022/05/16 00:37:55;;;;;;;8.60;3.50;;;18.40;68.50;;;;;;2080538;28;20048;-70
2022/05/16 00:38:55;;;;;;;7.40;3.58;;;18.40;68.30;;;;;;2082520;28;20492;-70
2022/05/16 00:39:56;;;;;;;6.57;3.22;;;18.30;68.30;;;;;;2081623;28;20022;-70
2022/05/16 00:41:00;;;;;;;7.85;3.75;;;18.40;68.80;;;;;;2082124;28;20049;-70
2022/05/16 00:42:01;;;;;;;6.32;3.50;;;18.30;69.30;;;;;;2082364;28;20029;-70
2022/05/16 00:43:09;;;;;;;4.10;3.17;;;18.30;68.40;;;;;;2081923;28;20370;-70
2022/05/16 00:44:10;;;;;;;8.68;3.58;;;18.30;68.40;;;;;;2080460;28;20177;-70
2022/05/16 00:45:13;;;;;;;6.35;3.38;;;18.30;69.00;;;;;;2080581;28;20026;-70
2022/05/16 00:46:16;;;;;;;7.97;3.40;;;18.30;68.40;;;;;;2082614;28;20014;-70
2022/05/16 00:47:16;;;;;;;6.30;2.97;;;18.30;68.70;;;;;;2081058;28;20033;-70
2022/05/16 00:48:17;;;;;;;6.15;3.53;;;18.30;68.40;;;;;;2080594;28;20025;-70
2022/05/16 00:49:27;;;;;;;5.45;3.83;;;18.20;68.20;;;;;;2079386;28;20440;-70
2022/05/16 00:50:28;;;;;;;;;;;18.30;69.10;;;;;;2080463;28;20017;-70
2022/05/16 00:51:33;;;;;;;6.10;3.25;;;18.10;70.30;;;;;;2083581;28;19948;-71
2022/05/16 00:52:38;;;;;;;6.68;2.88;;;18.20;69.80;;;;;;2083913;28;20039;-70
2022/05/16 00:53:39;;;;;;;5.95;3.35;;;18.20;69.50;;;;;;2078936;28;20018;-70
2022/05/16 00:54:44;;;;;;;9.15;3.40;;;18.10;70.00;;;;;;2081338;28;20020;-70
2022/05/16 00:55:45;;;;;;;5.60;3.10;;;18.10;70.20;;;;;;2080727;28;20060;-73
2022/05/16 00:56:51;;;;;;;5.70;3.45;;;18.10;69.50;;;;;;2083342;28;20112;-72
2022/05/16 00:57:56;;;;;;;5.10;3.22;;;18.10;69.90;;;;;;2079799;28;20457;-71
2022/05/16 00:58:56;;;;;;;6.68;3.65;;;18.10;70.90;;;;;;2080930;28;20018;-71
2022/05/16 01:00:15;;;;;;;7.65;3.40;;;18.10;71.10;;;;;;2078891;28;20022;-72
2022/05/16 01:05:17;;;;;;;5.30;3.25;;;17.90;71.30;;;;;;2080358;28;20481;-72
2022/05/16 01:06:18;;;;;;;6.78;3.20;;;17.90;71.00;;;;;;2082194;28;20448;-72
2022/05/16 01:07:25;;;;;;;7.65;3.33;;;17.90;71.80;;;;;;2080919;28;20532;-72
2022/05/16 01:08:28;;;;;;;4.57;3.38;;;17.90;72.80;;;;;;2083210;28;20481;-72
2022/05/16 01:09:30;;;;;;;6.43;3.60;;;17.90;72.30;;;;;;2080030;28;20111;-72
2022/05/16 01:10:30;;;;;;;7.88;3.25;;;17.90;73.20;;;;;;2083551;28;20029;-72
2022/05/16 01:11:32;;;;;;;6.70;3.08;;;17.80;72.10;;;;;;2081918;28;20033;-72
2022/05/16 01:12:37;;;;;;;5.60;3.42;;;17.80;70.50;;;;;;2081539;28;20374;-72
2022/05/16 01:13:37;;;;;;;6.43;3.35;;;17.80;71.20;;;;;;2080669;28;20021;-72
2022/05/16 01:14:58;;;;;;;6.70;4.40;;;17.80;72.60;;;;;;2074406;28;20398;-72
2022/05/16 01:16:01;;;;;;;7.88;3.65;;;17.70;75.20;;;;;;2076681;28;20668;-72
2022/05/16 01:17:01;;;;;;;9.98;3.80;;;17.70;74.20;;;;;;2083164;28;20101;-72
2022/05/16 01:18:07;;;;;;;5.85;3.55;;;17.70;75.40;;;;;;2081842;28;20021;-72
2022/05/16 01:19:08;;;;;;;5.70;3.38;;;17.60;75.20;;;;;;2082358;28;20033;-72
2022/05/16 01:20:09;;;;;;;5.72;3.28;;;17.60;75.40;;;;;;2080916;28;20018;-72
2022/05/16 01:21:37;;;;;;;7.35;3.83;;;17.60;75.20;;;;;;2081007;28;20077;-72
2022/05/16 01:22:42;;;;;;;6.97;3.45;;;17.60;77.90;;;;;;2082335;28;20388;-72
2022/05/16 01:23:52;;;;;;;6.57;3.60;;;17.50;75.50;;;;;;2079940;28;20534;-72
2022/05/16 01:24:54;;;;;;;;;;;17.50;77.00;;;;;;2083952;28;20032;-72
2022/05/16 01:25:54;;;;;;;7.07;3.10;;;17.40;81.00;;;;;;2076817;28;19909;-72
2022/05/16 01:26:55;;;;;;;4.20;2.75;;;17.40;77.70;;;;;;2082555;28;20099;-72
2022/05/16 01:28:04;;;;;;;6.80;3.47;;;17.40;75.90;;;;;;2082201;28;20156;-72
2022/05/16 01:29:06;;;;;;;4.95;3.20;;;17.40;76.80;;;;;;2080946;28;20025;-72
2022/05/16 01:30:07;;;;;;;7.25;3.58;;;17.40;75.90;;;;;;2081668;28;20057;-72
2022/05/16 01:31:07;;;;;;;5.57;3.25;;;17.30;78.20;;;;;;2079625;28;20045;-72
2022/05/16 01:32:10;;;;;;;6.03;3.60;;;17.30;77.30;;;;;;2078853;28;20083;-72
2022/05/16 01:33:10;;;;;;;8.32;3.58;;;17.30;78.80;;;;;;2083671;28;20013;-72
2022/05/16 01:34:11;;;;;;;8.38;3.95;;;17.30;79.50;;;;;;2082585;28;20478;-72
2022/05/16 01:35:12;;;;;;;6.53;3.40;;;17.30;78.40;;;;;;2083156;28;20033;-72
2022/05/16 01:36:13;;;;;;;5.50;3.63;;;17.30;77.60;;;;;;2081436;28;20111;-72
2022/05/16 01:37:13;;;;;;;11.48;4.55;;;17.20;79.10;;;;;;2080521;28;20040;-72
2022/05/16 01:38:18;;;;;;;6.10;3.50;;;17.20;79.60;;;;;;2080000;28;20024;-72
2022/05/16 01:39:19;;;;;;;5.05;3.50;;;17.10;79.80;;;;;;2082894;28;20017;-72
2022/05/16 01:40:20;;;;;;;8.38;3.95;;;17.20;79.50;;;;;;2076760;28;20034;-72
2022/05/16 01:41:24;;;;;;;4.82;3.60;;;17.20;81.30;;;;;;2080216;28;20033;-72
2022/05/16 01:42:24;;;;;;;5.15;3.28;;;17.10;80.00;;;;;;2079819;28;20512;-72
2022/05/16 01:43:28;;;;;;;6.07;3.63;;;17.10;80.10;;;;;;2081931;28;20112;-72
2022/05/16 01:44:29;;;;;;;7.43;3.70;;;17.10;81.60;;;;;;2079642;28;20021;-72
2022/05/16 01:45:30;;;;;;;7.35;3.83;;;17.10;83.20;;;;;;2080621;28;21244;-72
2022/05/16 01:46:35;;;;;;;6.95;3.88;;;17.00;84.80;;;;;;2081906;28;20029;-72
2022/05/16 01:47:35;;;;;;;8.73;3.47;;;17.00;83.60;;;;;;2080706;28;20523;-72
2022/05/16 01:48:36;;;;;;;6.63;3.53;;;17.00;82.90;;;;;;2078856;28;20491;-72
2022/05/16 01:49:37;;;;;;;4.43;3.85;;;17.00;83.60;;;;;;2080097;28;20588;-72
2022/05/16 01:50:39;;;;;;;6.10;3.40;;;17.00;85.30;;;;;;2082399;28;20413;-72
2022/05/16 01:51:40;;;;;;;7.03;3.40;;;16.90;83.00;;;;;;2080714;28;20032;-72
2022/05/16 01:52:41;;;;;;;8.52;4.63;;;16.90;84.00;;;;;;2080287;28;20531;-72
2022/05/16 01:53:43;;;;;;;7.38;3.10;;;16.90;86.30;;;;;;2080828;28;20484;-72
2022/05/16 01:54:44;;;;;;;5.47;3.38;;;16.90;85.90;;;;;;2081069;28;20021;-72
2022/05/16 01:55:44;;;;;;;4.50;2.88;;;16.90;86.60;;;;;;2080191;28;20104;-72
2022/05/16 01:56:46;;;;;;;9.30;3.97;;;16.90;85.90;;;;;;2084446;28;20504;-72
2022/05/16 01:57:46;;;;;;;6.45;3.60;;;16.80;85.40;;;;;;2082663;28;20112;-72
2022/05/16 01:58:48;;;;;;;7.88;3.63;;;16.80;84.60;;;;;;2079336;28;20473;-72
2022/05/16 01:59:48;;;;;;;6.13;3.47;;;16.80;84.90;;;;;;2081227;28;20010;-72
2022/05/16 02:00:49;;;;;;;6.70;3.78;;;16.80;87.00;;;;;;2081082;28;20032;-72
2022/05/16 02:01:50;;;;;;;6.72;3.58;;;16.80;88.80;;;;;;2082327;28;20029;-72
2022/05/16 02:02:50;;;;;;;6.72;3.58;;;16.70;87.50;;;;;;2082161;28;20029;-72
2022/05/16 02:03:51;;;;;;;7.15;4.13;;;16.70;89.90;;;;;;2081082;28;20591;-72
2022/05/16 02:04:52;;;;;;;6.30;3.92;;;16.70;90.50;;;;;;2079563;28;20057;-72
2022/05/16 02:05:52;;;;;;;8.00;4.15;;;16.60;90.80;;;;;;2080433;28;20029;-72
2022/05/16 02:06:53;;;;;;;8.27;3.80;;;16.70;91.20;;;;;;2080526;28;20497;-72
2022/05/16 02:07:53;;;;;;;6.70;3.72;;;16.60;91.30;;;;;;2080002;28;20041;-72
2022/05/16 02:08:54;;;;;;;6.32;3.50;;;16.60;92.40;;;;;;2081314;28;20029;-72
2022/05/16 02:09:55;;;;;;;4.97;2.92;;;16.60;91.70;;;;;;2079437;28;20421;-72
2022/05/16 02:10:56;;;;;;;5.22;3.55;;;16.60;91.20;;;;;;2079886;28;20025;-72
2022/05/16 02:11:57;;;;;;;6.05;3.97;;;16.60;91.90;;;;;;2080325;28;20483;-72
2022/05/16 02:12:57;;;;;;;7.00;3.85;;;16.50;90.60;;;;;;2081332;28;20029;-72
2022/05/16 02:13:58;;;;;;;10.52;3.60;;;16.50;91.10;;;;;;2082001;28;20483;-72
2022/05/16 02:14:58;;;;;;;6.43;3.88;;;16.50;91.30;;;;;;2079309;28;20440;-72
2022/05/16 02:15:59;;;;;;;8.32;3.83;;;16.50;91.90;;;;;;2079689;28;20026;-72
2022/05/16 02:17:00;;;;;;;7.30;3.42;;;16.50;93.10;;;;;;2081212;28;20025;-72
2022/05/16 02:18:01;;;;;;;7.13;4.18;;;16.50;93.30;;;;;;2080103;28;20125;-71
2022/05/16 02:19:01;;;;;;;9.07;4.28;;;16.40;93.00;;;;;;2079571;28;20021;-71
2022/05/16 02:20:03;;;;;;;6.65;3.88;;;16.40;93.50;;;;;;2086320;28;20045;-71
2022/05/16 02:25:01;;;;;;;8.20;4.38;;;16.30;94.60;;;;;;2082081;28;20029;-72
2022/05/16 02:26:02;;;;;;;5.30;3.58;;;16.30;94.20;;;;;;2080888;28;20022;-72
2022/05/16 02:27:03;;;;;;;7.47;4.00;;;16.30;94.90;;;;;;2081382;28;20022;-72
2022/05/16 02:28:05;;;;;;;7.25;3.65;;;16.30;94.20;;;;;;2081183;28;20025;-72
2022/05/16 02:29:06;;;;;;;7.53;3.90;;;16.30;92.90;;;;;;2081574;28;20025;-72
2022/05/16 02:30:07;;;;;;;6.15;4.00;;;16.20;94.50;;;;;;2081975;28;20060;-72
2022/05/16 02:31:08;;;;;;;8.30;4.18;;;16.20;93.90;;;;;;2081424;28;20444;-72
2022/05/16 02:32:10;;;;;;;6.50;3.90;;;16.20;94.40;;;;;;2081313;28;20219;-72
2022/05/16 02:33:13;;;;;;;6.95;4.07;;;16.20;95.00;;;;;;2084641;28;20104;-72
2022/05/16 02:34:15;;;;;;;6.53;4.15;;;16.20;95.70;;;;;;2081504;28;20025;-72
2022/05/16 02:35:16;;;;;;;6.68;3.95;;;16.20;94.40;;;;;;2083324;28;20060;-72
2022/05/16 02:36:17;;;;;;;6.88;3.90;;;16.20;95.70;;;;;;2082252;28;20022;-72
2022/05/16 02:37:17;;;;;;;9.68;3.90;;;16.20;96.60;;;;;;2081933;28;20029;-72
2022/05/16 02:38:20;;;;;;;7.18;3.92;;;16.10;96.30;;;;;;2083920;28;20032;-72
2022/05/16 02:39:21;;;;;;;8.52;3.80;;;16.10;96.00;;;;;;2080787;28;20041;-72
2022/05/16 02:40:21;;;;;;;9.60;4.03;;;16.10;96.10;;;;;;2084237;28;20028;-72
2022/05/16 02:41:22;;;;;;;6.95;4.00;;;16.10;96.70;;;;;;2082800;28;20075;-72
2022/05/16 02:42:22;;;;;;;5.40;3.75;;;16.10;97.50;;;;;;2081239;28;20017;-72
2022/05/16 02:43:23;;;;;;;7.03;4.22;;;16.10;96.90;;;;;;2082194;28;20032;-72
2022/05/16 02:44:24;;;;;;;7.57;4.32;;;16.00;98.00;;;;;;2082933;28;20041;-72
2022/05/16 02:45:25;;;;;;;7.65;3.95;;;16.00;98.30;;;;;;2083403;28;20030;-72
2022/05/16 02:46:26;;;;;;;7.00;3.95;;;16.00;98.30;;;;;;2082562;28;20017;-72
2022/05/16 02:47:26;;;;;;;8.02;4.13;;;16.00;96.70;;;;;;2082889;28;20097;-72
2022/05/16 02:48:27;;;;;;;7.60;4.55;;;16.00;96.50;;;;;;2084640;28;20048;-72
2022/05/16 02:49:27;;;;;;;5.90;3.88;;;16.00;97.70;;;;;;2083360;28;20110;-72
2022/05/16 02:50:28;;;;;;;6.82;3.92;;;15.90;98.60;;;;;;2081721;28;20485;-72
2022/05/16 02:51:30;;;;;;;6.15;3.85;;;15.90;96.60;;;;;;2082235;28;20029;-72
2022/05/16 02:52:31;;;;;;;7.85;4.25;;;15.90;96.60;;;;;;2084437;28;20836;-72
2022/05/16 02:53:31;;;;;;;9.18;4.70;;;15.90;97.60;;;;;;2080517;28;20488;-72
2022/05/16 02:54:32;;;;;;;8.57;4.60;;;15.90;99.00;;;;;;2082246;28;20750;-72
2022/05/16 02:55:33;;;;;;;7.90;4.75;;;15.90;99.20;;;;;;2082755;28;20033;-72
2022/05/16 02:56:34;;;;;;;8.70;4.38;;;15.90;99.90;;;;;;2083297;28;20501;-72
2022/05/16 02:57:35;;;;;;;10.98;5.05;;;15.80;98.50;;;;;;2080570;28;20112;-72
2022/05/16 02:58:35;;;;;;;9.35;4.57;;;15.80;99.80;;;;;;2083165;28;20037;-72
2022/05/16 02:59:37;;;;;;;8.85;4.13;;;15.80;99.90;;;;;;2079967;28;20116;-72
2022/05/16 03:00:38;;;;;;;10.43;4.57;;;15.80;99.60;;;;;;2080601;28;20025;-72
2022/05/16 03:01:38;;;;;;;7.40;4.80;;;15.80;99.40;;;;;;2081360;28;20053;-72
2022/05/16 03:02:39;;;;;;;6.95;4.25;;;15.80;99.10;;;;;;2081048;28;20025;-72
2022/05/16 03:03:40;;;;;;;8.50;4.18;;;15.80;98.70;;;;;;2080793;28;20025;-72
2022/05/16 03:04:41;;;;;;;8.73;4.20;;;15.80;99.50;;;;;;2083303;28;20037;-72
2022/05/16 03:05:41;;;;;;;6.85;4.57;;;15.80;99.60;;;;;;2084451;28;20082;-72
2022/05/16 03:06:42;;;;;;;11.88;4.18;;;15.70;98.90;;;;;;2083748;28;20067;-72
2022/05/16 03:07:43;;;;;;;9.50;4.75;;;15.70;99.60;;;;;;2080842;28;20120;-72
2022/05/16 03:08:44;;;;;;;7.13;4.55;;;15.70;99.90;;;;;;2080035;28;20618;-72
2022/05/16 03:09:47;;;;;;;9.65;4.35;;;15.70;99.90;;;;;;2083327;28;20025;-72
2022/05/16 03:10:47;;;;;;;9.80;5.07;;;15.70;99.90;;;;;;2085054;28;20017;-72
2022/05/16 03:11:48;;;;;;;9.65;4.50;;;15.70;99.90;;;;;;2080076;28;20053;-72
2022/05/16 03:12:49;;;;;;;7.80;4.40;;;15.70;99.90;;;;;;2083025;28;20029;-72
2022/05/16 03:13:50;;;;;;;8.82;4.40;;;15.70;99.90;;;;;;2081304;28;20013;-72
2022/05/16 03:14:50;;;;;;;10.05;4.18;;;15.60;99.90;;;;;;2085218;28;20481;-72
2022/05/16 03:15:51;;;;;;;10.35;4.43;;;15.70;99.90;;;;;;2083248;28;20017;-73
2022/05/16 03:16:51;;;;;;;7.95;4.25;;;15.70;99.90;;;;;;2080107;28;20611;-72
2022/05/16 03:17:52;;;;;;;6.88;4.35;;;15.60;99.90;;;;;;2084076;28;20026;-72
2022/05/16 03:18:53;;;;;;;6.57;4.10;;;15.60;99.90;;;;;;2082454;28;20017;-72
2022/05/16 03:19:53;;;;;;;8.02;4.47;;;15.60;99.90;;;;;;2081174;28;20507;-72
2022/05/16 03:20:54;;;;;;;8.18;4.30;;;15.60;99.90;;;;;;2082438;28;20022;-72
2022/05/16 03:21:54;;;;;;;6.32;4.28;;;15.60;99.90;;;;;;2084012;28;20032;-72
2022/05/16 03:22:55;;;;;;;10.55;4.47;;;15.60;99.90;;;;;;2081990;28;20485;-72
2022/05/16 03:23:56;;;;;;;11.13;5.25;;;15.60;99.90;;;;;;2080629;28;20362;-72
2022/05/16 03:24:57;;;;;;;8.95;3.90;;;15.60;99.90;;;;;;2080689;28;20032;-72
2022/05/16 03:25:58;;;;;;;7.25;4.00;;;15.60;99.90;;;;;;2079558;28;20052;-72
2022/05/16 03:26:59;;;;;;;6.30;3.80;;;15.60;99.90;;;;;;2081141;28;20037;-72
2022/05/16 03:28:00;;;;;;;7.13;3.78;;;15.50;99.90;;;;;;2081350;28;20074;-72
2022/05/16 03:29:00;;;;;;;6.53;3.90;;;15.50;99.90;;;;;;2080225;28;20021;-72
2022/05/16 03:30:01;;;;;;;7.50;4.05;;;15.50;99.90;;;;;;2082355;28;20056;-72
2022/05/16 03:31:02;;;;;;;7.45;3.95;;;15.50;99.90;;;;;;2080929;28;20489;-72
2022/05/16 03:32:04;;;;;;;8.85;4.18;;;15.50;99.90;;;;;;2082850;28;20496;-72
2022/05/16 03:33:05;;;;;;;7.13;4.32;;;15.50;99.90;;;;;;2082643;28;20017;-72
2022/05/16 03:34:07;;;;;;;9.50;4.70;;;15.50;99.90;;;;;;2081819;28;20441;-72
2022/05/16 03:35:08;;;;;;;9.43;4.63;;;15.50;99.90;;;;;;2081008;28;20044;-72
2022/05/16 03:36:09;;;;;;;6.35;4.40;;;15.50;99.90;;;;;;2081619;28;20059;-72
2022/05/16 03:37:10;;;;;;;10.25;5.00;;;15.50;99.90;;;;;;2080293;28;20097;-72
2022/05/16 03:40:41;;;;;;;8.57;4.63;;;15.40;99.90;;;;;;2082767;28;20077;-72
2022/05/16 03:40:50;;;;;;;6.03;4.00;;;15.40;99.90;;;;;;2080116;28;20045;-71
2022/05/16 03:41:51;;;;;;;8.15;4.55;;;15.40;99.90;;;;;;2080964;28;20021;-72
2022/05/16 03:42:52;;;;;;;8.82;5.28;;;15.40;99.90;;;;;;2081778;28;20021;-72
2022/05/16 03:43:52;;;;;;;7.78;3.97;;;15.40;99.90;;;;;;2082795;28;20030;-72
2022/05/16 03:44:53;;;;;;;9.30;3.90;;;15.40;99.90;;;;;;2083641;28;20029;-72
2022/05/16 03:45:54;;;;;;;9.02;4.82;;;15.40;99.90;;;;;;2081424;28;20468;-72
2022/05/16 03:46:54;;;;;;;6.57;4.50;;;15.40;99.90;;;;;;2081688;28;20017;-72
2022/05/16 03:47:55;;;;;;;7.63;5.03;;;15.40;99.90;;;;;;2083618;28;20606;-72
2022/05/16 03:48:55;;;;;;;9.15;4.60;;;15.40;99.90;;;;;;2080797;28;20064;-72
2022/05/16 03:49:56;;;;;;;8.93;4.53;;;15.40;99.90;;;;;;2081241;28;20040;-72
2022/05/16 03:50:56;;;;;;;7.88;5.05;;;15.40;99.90;;;;;;2083077;28;20056;-72
2022/05/16 03:51:59;;;;;;;7.45;4.82;;;15.40;99.90;;;;;;2081811;28;20033;-72
2022/05/16 03:53:00;;;;;;;8.48;5.13;;;15.30;99.90;;;;;;2083227;28;20408;-72
2022/05/16 03:54:00;;;;;;;8.07;4.38;;;15.40;99.90;;;;;;2081165;28;20022;-72
2022/05/16 03:55:01;;;;;;;9.73;4.72;;;15.40;99.90;;;;;;2082938;28;20021;-72
2022/05/16 03:56:02;;;;;;;8.20;5.00;;;15.30;99.90;;;;;;2082622;28;20553;-72
2022/05/16 03:57:03;;;;;;;8.60;5.13;;;15.40;99.90;;;;;;2080896;28;20026;-72
2022/05/16 03:58:04;;;;;;;10.80;5.00;;;15.30;99.90;;;;;;2080039;28;20366;-72
2022/05/16 03:59:04;;;;;;;7.95;4.90;;;15.30;99.90;;;;;;2081851;28;20146;-72
2022/05/16 04:00:09;;;;;;;9.30;5.00;;;15.30;99.90;;;;;;2080451;28;20022;-72
2022/05/16 04:01:11;;;;;;;8.55;5.07;;;15.30;99.90;;;;;;2077632;28;20108;-72
2022/05/16 04:02:11;;;;;;;8.90;4.35;;;15.30;99.90;;;;;;2077291;28;20021;-72
2022/05/16 04:03:12;;;;;;;8.13;4.28;;;15.30;99.90;;;;;;2085077;28;20036;-72
2022/05/16 04:04:12;;;;;;;5.72;3.75;;;15.30;99.90;;;;;;2082830;28;20544;-72
2022/05/16 04:05:18;;;;;;;9.07;4.75;;;15.30;99.90;;;;;;2082674;28;20029;-72
2022/05/16 04:06:19;;;;;;;10.05;5.18;;;15.30;99.90;;;;;;2082999;28;20048;-72
2022/05/16 04:07:20;;;;;;;7.03;4.13;;;15.30;99.90;;;;;;2082358;28;20009;-72
2022/05/16 04:08:20;;;;;;;9.88;4.60;;;15.30;99.90;;;;;;2081555;28;20025;-72
2022/05/16 04:09:21;;;;;;;11.30;5.07;;;15.30;99.90;;;;;;2082053;28;20040;-72
2022/05/16 04:10:22;;;;;;;9.90;5.10;;;15.30;99.90;;;;;;2081300;28;20036;-72
2022/05/16 04:11:23;;;;;;;7.78;4.88;;;15.30;99.90;;;;;;2084545;28;20026;-72
2022/05/16 04:12:23;;;;;;;7.85;5.05;;;15.30;99.90;;;;;;2084622;28;20991;-72
2022/05/16 04:13:24;;;;;;;9.23;5.30;;;15.30;99.90;;;;;;2080582;28;20489;-72
2022/05/16 04:14:25;;;;;;;8.23;5.00;;;15.30;99.90;;;;;;2082410;28;20068;-72
2022/05/16 04:15:26;;;;;;;6.72;4.65;;;15.30;99.90;;;;;;2079857;28;20021;-72
2022/05/16 04:16:26;;;;;;;10.15;4.78;;;15.30;99.90;;;;;;2080481;28;20101;-72
2022/05/16 04:17:27;;;;;;;10.50;5.20;;;15.30;99.90;;;;;;2082169;28;20013;-72
2022/05/16 04:18:27;;;;;;;10.63;5.30;;;15.30;99.90;;;;;;2082121;28;20074;-72
2022/05/16 04:19:28;;;;;;;9.85;5.60;;;15.30;99.90;;;;;;2083669;28;20107;-72
2022/05/16 04:20:28;;;;;;;9.90;5.55;;;15.30;99.90;;;;;;2080286;28;20044;-72
2022/05/16 04:21:29;;;;;;;8.60;4.70;;;15.30;99.90;;;;;;2079913;28;20045;-72
2022/05/16 04:22:30;;;;;;;10.25;5.43;;;15.30;99.90;;;;;;2085518;28;20064;-72
2022/05/16 04:23:31;;;;;;;6.50;4.30;;;15.30;99.90;;;;;;2080710;28;20013;-72
2022/05/16 04:24:32;;;;;;;10.90;5.20;;;15.30;99.90;;;;;;2080389;28;20021;-72
2022/05/16 04:25:33;;;;;;;10.05;4.75;;;15.30;99.90;;;;;;2081556;28;20032;-72
2022/05/16 04:26:34;;;;;;;10.45;4.80;;;15.30;99.90;;;;;;2083588;28;20021;-72
2022/05/16 04:27:34;;;;;;;9.90;5.07;;;15.30;99.90;;;;;;2079741;28;20044;-72
2022/05/16 04:28:35;;;;;;;10.30;4.60;;;15.40;99.90;;;;;;2080388;28;20037;-72
2022/05/16 04:29:36;;;;;;;11.70;5.03;;;15.30;99.90;;;;;;2080283;28;20029;-72
2022/05/16 04:30:38;;;;;;;8.00;4.97;;;15.40;99.90;;;;;;2079763;28;20017;-72
2022/05/16 04:31:39;;;;;;;11.30;4.85;;;15.40;99.90;;;;;;2081018;28;20022;-72
2022/05/16 04:32:39;;;;;;;13.25;4.90;;;15.40;99.90;;;;;;2082717;28;20048;-72
2022/05/16 04:33:40;;;;;;;9.02;4.60;;;15.40;99.90;;;;;;2083083;28;20022;-72
2022/05/16 04:34:40;;;;;;;7.53;4.57;;;15.50;99.90;;;;;;2082684;28;20029;-72
2022/05/16 04:35:41;;;;;;;9.70;5.07;;;15.60;99.90;;;;;;2080048;28;20044;-72
2022/05/16 04:36:42;;;;;;;9.57;4.93;;;15.60;99.90;;;;;;2082526;28;20464;-72
2022/05/16 04:37:43;;;;;;;10.52;5.03;;;15.70;99.90;;;;;;2079474;28;20829;-72
2022/05/16 04:38:43;;;;;;;9.35;4.90;;;15.70;99.90;;;;;;2082476;28;20025;-72
2022/05/16 04:39:44;;;;;;;11.48;5.07;;;15.70;99.90;;;;;;2080490;28;20494;-72
2022/05/16 04:43:23;;;;;;;6.32;3.83;;;15.80;99.90;;;;;;2078998;28;20428;-72
2022/05/16 04:44:24;;;;;;;9.35;4.93;;;15.70;99.90;;;;;;2081089;28;20037;-72
2022/05/16 04:45:28;;;;;;;7.13;4.57;;;15.80;99.90;;;;;;2081993;28;20552;-72
2022/05/16 04:46:28;;;;;;;9.98;5.15;;;15.80;99.90;;;;;;2079934;28;20148;-72
2022/05/16 04:47:30;;;;;;;11.77;5.00;;;15.80;99.90;;;;;;2081800;28;20021;-72
2022/05/16 04:48:30;;;;;;;11.57;4.88;;;15.80;99.90;;;;;;2081415;28;20588;-72
2022/05/16 04:49:31;;;;;;;8.77;4.80;;;15.80;99.90;;;;;;2080299;28;20398;-72
2022/05/16 04:50:33;;;;;;;8.10;4.70;;;15.90;99.90;;;;;;2082224;28;20079;-72
2022/05/16 04:51:34;;;;;;;8.48;4.85;;;15.90;99.90;;;;;;2082251;28;20030;-72
2022/05/16 04:52:34;;;;;;;10.75;4.93;;;15.90;99.90;;;;;;2081462;28;20029;-72
2022/05/16 04:53:35;;;;;;;11.40;5.38;;;15.90;99.90;;;;;;2079926;28;20031;-72
2022/05/16 04:54:35;;;;;;;8.98;4.82;;;15.90;99.90;;;;;;2079848;28;20026;-72
2022/05/16 04:55:36;;;;;;;9.23;5.07;;;16.00;99.90;;;;;;2079111;28;20032;-72
2022/05/16 04:56:37;;;;;;;11.75;5.22;;;16.00;99.90;;;;;;2081646;28;20056;-72
2022/05/16 04:57:38;;;;;;;13.38;4.80;;;16.10;99.90;;;;;;2083474;28;20024;-72
2022/05/16 04:58:38;;;;;;;14.60;5.68;;;16.20;99.90;;;;;;2081334;28;20056;-72
2022/05/16 04:59:39;;;;;;;11.40;5.22;;;16.20;99.90;;;;;;2081395;28;20214;-72
2022/05/16 05:00:41;;;;;;;11.38;4.68;;;16.30;99.90;;;;;;2083107;28;20024;-72
2022/05/16 05:01:41;;;;;;;9.05;5.05;;;16.30;99.90;;;;;;2079648;28;20021;-72
2022/05/16 05:02:43;;;;;;;13.52;5.70;;;16.40;99.90;;;;;;2080882;28;20025;-72
2022/05/16 05:03:44;;;;;;;8.35;5.38;;;16.50;99.90;;;;;;2081811;28;20132;-72
2022/05/16 05:04:45;;;;;;;8.15;4.47;;;16.50;99.90;;;;;;2079845;28;20035;-72
2022/05/16 05:05:46;;;;;;;9.75;4.53;;;16.60;99.90;;;;;;2081268;28;20056;-72
2022/05/16 05:06:47;;;;;;;16.83;5.07;;;16.70;99.90;;;;;;2082390;28;20030;-72
2022/05/16 05:07:47;;;;;;;12.63;5.85;;;16.80;99.90;;;;;;2080436;28;20059;-72
2022/05/16 05:08:48;;;;;;;8.80;4.50;;;16.90;99.90;;;;;;2079682;28;20036;-72
2022/05/16 05:15:07;;;;;;;7.32;4.65;;;17.20;99.90;;;;;;2080575;28;20034;-72
2022/05/16 05:16:11;;;;;;;9.13;4.85;;;17.30;99.90;;;;;;2081110;28;20055;-72
2022/05/16 05:17:12;;;;;;;7.75;4.68;;;17.30;99.90;;;;;;2079943;28;20044;-72
2022/05/16 05:18:12;;;;;;;15.85;5.35;;;17.40;99.90;;;;;;2079503;28;20048;-72
2022/05/16 05:19:13;;;;;;;8.20;4.35;;;17.50;99.90;;;;;;2078788;28;20815;-72
2022/05/16 05:20:14;;;;;;;9.88;4.78;;;17.60;99.90;;;;;;2080512;28;20014;-72
2022/05/16 05:21:15;;;;;;;9.15;4.43;;;17.60;99.90;;;;;;2079931;28;20094;-72
2022/05/16 05:22:16;;;;;;;14.00;5.15;;;17.70;99.90;;;;;;2081811;28;20037;-72
2022/05/16 05:23:17;;;;;;;8.90;4.18;;;17.80;99.90;;;;;;2080387;28;20502;-72
2022/05/16 05:24:17;;;;;;;10.20;4.63;;;17.90;99.90;;;;;;2080632;28;20440;-72
2022/05/16 05:25:19;;;;;;;8.32;4.47;;;18.00;99.90;;;;;;2079078;28;20097;-72
2022/05/16 05:26:20;;;;;;;9.63;4.88;;;18.10;99.90;;;;;;2078541;28;20024;-72
2022/05/16 05:27:21;;;;;;;10.57;4.80;;;18.20;99.90;;;;;;2080656;28;20072;-72
2022/05/16 05:28:21;;;;;;;14.50;5.35;;;18.30;99.90;;;;;;2079644;28;20036;-72
2022/05/16 05:29:22;;;;;;;11.13;4.35;;;18.40;99.90;;;;;;2079128;28;20056;-72
2022/05/16 05:30:25;;;;;;;8.55;4.47;;;18.50;99.90;;;;;;2085130;28;20492;-72
2022/05/16 05:31:26;;;;;;;10.10;4.63;;;18.50;99.90;;;;;;2081116;28;20030;-72
2022/05/16 05:32:26;;;;;;;7.55;4.43;;;18.60;99.90;;;;;;2080063;28;20716;-72
2022/05/16 05:33:27;;;;;;;11.45;5.40;;;18.70;99.90;;;;;;2081309;28;20039;-72
2022/05/16 05:34:28;;;;;;;9.20;4.30;;;18.80;99.90;;;;;;2081795;28;20029;-72
2022/05/16 05:35:31;;;;;;;12.93;4.97;;;18.80;99.90;;;;;;2079828;28;20021;-72
2022/05/16 05:36:33;;;;;;;8.32;4.57;;;18.90;99.90;;;;;;2081975;28;20032;-72